sensor_id;sensor_type;location;lat;lon;timestamp;P1;durP1;ratioP1;P2;durP2;ratioP2
44564;SDS011;30275;51.822;-0.326;2022-10-16T00:01:04;14.25;;;2.78;;
44564;SDS011;30275;51.822;-0.326;2022-10-16T00:03:31;10.13;;;2.47;;
44564;SDS011;30275;51.822;-0.326;2022-10-16T00:05:58;7.32;;;1.77;;
44564;SDS011;30275;51.822;-0.326;2022-10-16T00:08:25;16.63;;;3.10;;
44564;SDS011;30275;51.822;-0.326;2022-10-16T00:10:51;9.70;;;2.85;;
44564;SDS011;30275;51.822;-0.326;2022-10-16T00:13:16;9.85;;;1.95;;
44564;SDS011;30275;51.822;-0.326;2022-10-16T00:15:44;12.10;;;2.58;;
44564;SDS011;30275;51.822;-0.326;2022-10-16T00:18:11;15.73;;;2.13;;
44564;SDS011;30275;51.822;-0.326;2022-10-16T00:20:37;9.40;;;1.73;;
44564;SDS011;30275;51.822;-0.326;2022-10-16T00:23:03;13.15;;;2.65;;
44564;SDS011;30275;51.822;-0.326;2022-10-16T00:25:30;8.93;;;2.22;;
44564;SDS011;30275;51.822;-0.326;2022-10-16T00:27:57;11.07;;;2.03;;
44564;SDS011;30275;51.822;-0.326;2022-10-16T00:30:24;11.15;;;2.15;;
44564;SDS011;30275;51.822;-0.326;2022-10-16T00:32:51;12.25;;;2.72;;
44564;SDS011;30275;51.822;-0.326;2022-10-16T00:35:17;16.00;;;2.80;;
44564;SDS011;30275;51.822;-0.326;2022-10-16T00:37:43;12.27;;;3.28;;
44564;SDS011;30275;51.822;-0.326;2022-10-16T00:40:08;12.75;;;2.35;;
44564;SDS011;30275;51.822;-0.326;2022-10-16T00:42:37;11.85;;;2.40;;
44564;SDS011;30275;51.822;-0.326;2022-10-16T00:45:03;9.10;;;2.33;;
44564;SDS011;30275;51.822;-0.326;2022-10-16T00:47:39;13.00;;;2.25;;
44564;SDS011;30275;51.822;-0.326;2022-10-16T00:52:48;6.60;;;1.80;;
44564;SDS011;30275;51.822;-0.326;2022-10-16T00:55:16;13.60;;;2.65;;
44564;SDS011;30275;51.822;-0.326;2022-10-16T00:57:43;9.63;;;1.83;;
44564;SDS011;30275;51.822;-0.326;2022-10-16T01:00:10;7.40;;;1.65;;
44564;SDS011;30275;51.822;-0.326;2022-10-16T01:02:39;12.02;;;1.95;;
44564;SDS011;30275;51.822;-0.326;2022-10-16T01:05:04;5.50;;;1.90;;
44564;SDS011;30275;51.822;-0.326;2022-10-16T01:07:41;12.30;;;2.03;;
44564;SDS011;30275;51.822;-0.326;2022-10-16T01:15:38;15.07;;;2.05;;
44564;SDS011;30275;51.822;-0.326;2022-10-16T01:18:08;11.90;;;2.25;;
44564;SDS011;30275;51.822;-0.326;2022-10-16T01:20:42;11.23;;;2.33;;
44564;SDS011;30275;51.822;-0.326;2022-10-16T01:28:40;9.48;;;1.88;;
44564;SDS011;30275;51.822;-0.326;2022-10-16T01:31:06;9.90;;;1.63;;
44564;SDS011;30275;51.822;-0.326;2022-10-16T01:33:38;4.40;;;1.50;;
44564;SDS011;30275;51.822;-0.326;2022-10-16T01:36:09;10.52;;;1.85;;
44564;SDS011;30275;51.822;-0.326;2022-10-16T01:38:40;11.88;;;3.10;;
44564;SDS011;30275;51.822;-0.326;2022-10-16T01:41:15;10.90;;;3.45;;
44564;SDS011;30275;51.822;-0.326;2022-10-16T01:44:08;8.00;;;2.28;;
44564;SDS011;30275;51.822;-0.326;2022-10-16T01:46:47;11.63;;;1.75;;
44564;SDS011;30275;51.822;-0.326;2022-10-16T01:49:15;12.52;;;2.35;;
44564;SDS011;30275;51.822;-0.326;2022-10-16T01:51:43;5.88;;;1.50;;
44564;SDS011;30275;51.822;-0.326;2022-10-16T01:54:11;10.07;;;2.15;;
44564;SDS011;30275;51.822;-0.326;2022-10-16T01:56:40;7.40;;;1.20;;
44564;SDS011;30275;51.822;-0.326;2022-10-16T01:59:12;4.75;;;1.35;;
44564;SDS011;30275;51.822;-0.326;2022-10-16T02:01:40;3.90;;;1.45;;
44564;SDS011;30275;51.822;-0.326;2022-10-16T02:04:13;5.78;;;1.40;;
44564;SDS011;30275;51.822;-0.326;2022-10-16T02:06:49;2.95;;;1.05;;
44564;SDS011;30275;51.822;-0.326;2022-10-16T02:09:15;1.92;;;0.70;;
44564;SDS011;30275;51.822;-0.326;2022-10-16T02:11:42;2.42;;;0.85;;
44564;SDS011;30275;51.822;-0.326;2022-10-16T02:14:08;2.72;;;1.00;;
44564;SDS011;30275;51.822;-0.326;2022-10-16T02:16:35;5.85;;;2.10;;
44564;SDS011;30275;51.822;-0.326;2022-10-16T02:19:09;6.85;;;1.90;;
44564;SDS011;30275;51.822;-0.326;2022-10-16T02:21:38;4.15;;;1.08;;
44564;SDS011;30275;51.822;-0.326;2022-10-16T02:29:42;5.03;;;0.93;;
44564;SDS011;30275;51.822;-0.326;2022-10-16T02:32:15;5.80;;;1.58;;
44564;SDS011;30275;51.822;-0.326;2022-10-16T02:34:45;5.47;;;1.70;;
44564;SDS011;30275;51.822;-0.326;2022-10-16T02:37:14;4.63;;;1.48;;
44564;SDS011;30275;51.822;-0.326;2022-10-16T02:39:41;3.67;;;1.58;;
44564;SDS011;30275;51.822;-0.326;2022-10-16T02:42:13;3.45;;;1.00;;
44564;SDS011;30275;51.822;-0.326;2022-10-16T02:44:39;5.03;;;1.35;;
44564;SDS011;30275;51.822;-0.326;2022-10-16T02:47:05;4.75;;;0.95;;
44564;SDS011;30275;51.822;-0.326;2022-10-16T02:49:31;5.82;;;1.00;;
44564;SDS011;30275;51.822;-0.326;2022-10-16T02:51:56;2.50;;;1.23;;
44564;SDS011;30275;51.822;-0.326;2022-10-16T02:54:22;4.25;;;1.42;;
44564;SDS011;30275;51.822;-0.326;2022-10-16T02:56:48;3.88;;;0.90;;
44564;SDS011;30275;51.822;-0.326;2022-10-16T02:59:14;4.32;;;1.25;;
44564;SDS011;30275;51.822;-0.326;2022-10-16T03:01:39;1.95;;;0.80;;
44564;SDS011;30275;51.822;-0.326;2022-10-16T03:04:05;4.88;;;1.25;;
44564;SDS011;30275;51.822;-0.326;2022-10-16T03:06:31;2.70;;;0.80;;
44564;SDS011;30275;51.822;-0.326;2022-10-16T03:08:56;3.15;;;1.15;;
44564;SDS011;30275;51.822;-0.326;2022-10-16T03:11:22;4.75;;;0.90;;
44564;SDS011;30275;51.822;-0.326;2022-10-16T03:13:47;2.17;;;1.10;;
44564;SDS011;30275;51.822;-0.326;2022-10-16T03:16:13;3.10;;;0.95;;
44564;SDS011;30275;51.822;-0.326;2022-10-16T03:18:39;3.63;;;1.00;;
44564;SDS011;30275;51.822;-0.326;2022-10-16T03:21:04;2.90;;;1.20;;
44564;SDS011;30275;51.822;-0.326;2022-10-16T03:23:30;2.33;;;0.82;;
44564;SDS011;30275;51.822;-0.326;2022-10-16T03:25:55;1.88;;;0.82;;
44564;SDS011;30275;51.822;-0.326;2022-10-16T03:28:21;7.05;;;1.30;;
44564;SDS011;30275;51.822;-0.326;2022-10-16T03:30:47;2.42;;;0.73;;
44564;SDS011;30275;51.822;-0.326;2022-10-16T03:33:12;1.73;;;0.90;;
44564;SDS011;30275;51.822;-0.326;2022-10-16T03:35:38;1.55;;;0.60;;
44564;SDS011;30275;51.822;-0.326;2022-10-16T03:38:03;3.35;;;1.15;;
44564;SDS011;30275;51.822;-0.326;2022-10-16T03:40:29;3.65;;;0.98;;
44564;SDS011;30275;51.822;-0.326;2022-10-16T03:42:57;4.45;;;0.90;;
44564;SDS011;30275;51.822;-0.326;2022-10-16T03:45:23;2.70;;;0.82;;
44564;SDS011;30275;51.822;-0.326;2022-10-16T03:47:49;3.28;;;1.38;;
44564;SDS011;30275;51.822;-0.326;2022-10-16T03:50:15;1.75;;;1.00;;
44564;SDS011;30275;51.822;-0.326;2022-10-16T03:52:40;2.95;;;0.88;;
44564;SDS011;30275;51.822;-0.326;2022-10-16T03:55:06;4.05;;;0.90;;
44564;SDS011;30275;51.822;-0.326;2022-10-16T03:57:32;5.10;;;1.00;;
44564;SDS011;30275;51.822;-0.326;2022-10-16T03:59:58;2.78;;;0.77;;
44564;SDS011;30275;51.822;-0.326;2022-10-16T04:02:23;3.28;;;0.90;;
44564;SDS011;30275;51.822;-0.326;2022-10-16T04:04:49;2.65;;;0.95;;
44564;SDS011;30275;51.822;-0.326;2022-10-16T04:07:15;3.58;;;0.77;;
44564;SDS011;30275;51.822;-0.326;2022-10-16T04:09:40;3.90;;;0.85;;
44564;SDS011;30275;51.822;-0.326;2022-10-16T04:12:06;1.88;;;0.88;;
44564;SDS011;30275;51.822;-0.326;2022-10-16T04:14:32;5.30;;;1.27;;
44564;SDS011;30275;51.822;-0.326;2022-10-16T04:16:58;4.40;;;1.08;;
44564;SDS011;30275;51.822;-0.326;2022-10-16T04:19:24;4.80;;;1.00;;
44564;SDS011;30275;51.822;-0.326;2022-10-16T04:21:50;4.35;;;1.20;;
44564;SDS011;30275;51.822;-0.326;2022-10-16T04:24:15;2.28;;;0.80;;
44564;SDS011;30275;51.822;-0.326;2022-10-16T04:26:41;2.20;;;0.80;;
44564;SDS011;30275;51.822;-0.326;2022-10-16T04:29:06;4.88;;;1.40;;
44564;SDS011;30275;51.822;-0.326;2022-10-16T04:31:32;1.30;;;0.85;;
44564;SDS011;30275;51.822;-0.326;2022-10-16T04:33:58;2.72;;;0.90;;
44564;SDS011;30275;51.822;-0.326;2022-10-16T04:36:24;2.05;;;0.70;;
44564;SDS011;30275;51.822;-0.326;2022-10-16T04:38:49;3.85;;;1.20;;
44564;SDS011;30275;51.822;-0.326;2022-10-16T04:41:15;5.50;;;1.25;;
44564;SDS011;30275;51.822;-0.326;2022-10-16T04:43:40;3.13;;;1.23;;
44564;SDS011;30275;51.822;-0.326;2022-10-16T04:46:06;2.55;;;0.93;;
44564;SDS011;30275;51.822;-0.326;2022-10-16T04:48:32;2.00;;;0.85;;
44564;SDS011;30275;51.822;-0.326;2022-10-16T04:50:57;3.25;;;0.80;;
44564;SDS011;30275;51.822;-0.326;2022-10-16T04:53:23;2.05;;;0.77;;
44564;SDS011;30275;51.822;-0.326;2022-10-16T04:55:49;1.85;;;0.68;;
44564;SDS011;30275;51.822;-0.326;2022-10-16T04:58:15;3.35;;;0.95;;
44564;SDS011;30275;51.822;-0.326;2022-10-16T05:00:41;5.15;;;1.50;;
44564;SDS011;30275;51.822;-0.326;2022-10-16T05:03:07;3.28;;;1.40;;
44564;SDS011;30275;51.822;-0.326;2022-10-16T05:05:34;2.70;;;1.00;;
44564;SDS011;30275;51.822;-0.326;2022-10-16T05:08:01;6.60;;;0.82;;
44564;SDS011;30275;51.822;-0.326;2022-10-16T05:10:27;6.70;;;1.20;;
44564;SDS011;30275;51.822;-0.326;2022-10-16T05:12:53;2.08;;;0.63;;
44564;SDS011;30275;51.822;-0.326;2022-10-16T05:15:18;2.40;;;0.70;;
44564;SDS011;30275;51.822;-0.326;2022-10-16T05:17:44;4.90;;;0.95;;
44564;SDS011;30275;51.822;-0.326;2022-10-16T05:20:10;2.03;;;0.50;;
44564;SDS011;30275;51.822;-0.326;2022-10-16T05:22:36;1.67;;;0.70;;
44564;SDS011;30275;51.822;-0.326;2022-10-16T05:25:02;3.90;;;0.93;;
44564;SDS011;30275;51.822;-0.326;2022-10-16T05:27:28;2.80;;;0.90;;
44564;SDS011;30275;51.822;-0.326;2022-10-16T05:29:53;2.53;;;1.02;;
44564;SDS011;30275;51.822;-0.326;2022-10-16T05:32:19;4.10;;;0.63;;
44564;SDS011;30275;51.822;-0.326;2022-10-16T05:34:44;4.15;;;0.80;;
44564;SDS011;30275;51.822;-0.326;2022-10-16T05:37:11;1.23;;;0.70;;
44564;SDS011;30275;51.822;-0.326;2022-10-16T05:39:37;2.42;;;1.02;;
44564;SDS011;30275;51.822;-0.326;2022-10-16T05:42:03;3.85;;;1.17;;
44564;SDS011;30275;51.822;-0.326;2022-10-16T05:44:29;1.27;;;0.70;;
44564;SDS011;30275;51.822;-0.326;2022-10-16T05:46:55;2.72;;;0.73;;
44564;SDS011;30275;51.822;-0.326;2022-10-16T05:49:20;1.90;;;0.52;;
44564;SDS011;30275;51.822;-0.326;2022-10-16T05:51:46;4.10;;;0.70;;
44564;SDS011;30275;51.822;-0.326;2022-10-16T05:54:12;2.63;;;0.63;;
44564;SDS011;30275;51.822;-0.326;2022-10-16T05:56:37;1.67;;;0.60;;
44564;SDS011;30275;51.822;-0.326;2022-10-16T05:59:03;8.52;;;1.55;;
44564;SDS011;30275;51.822;-0.326;2022-10-16T06:01:29;4.80;;;1.20;;
44564;SDS011;30275;51.822;-0.326;2022-10-16T06:03:55;2.72;;;0.90;;
44564;SDS011;30275;51.822;-0.326;2022-10-16T06:06:23;2.85;;;1.00;;
44564;SDS011;30275;51.822;-0.326;2022-10-16T06:08:53;4.07;;;1.15;;
44564;SDS011;30275;51.822;-0.326;2022-10-16T06:11:25;3.08;;;1.23;;
44564;SDS011;30275;51.822;-0.326;2022-10-16T06:13:52;2.47;;;0.70;;
44564;SDS011;30275;51.822;-0.326;2022-10-16T06:16:21;3.80;;;1.02;;
44564;SDS011;30275;51.822;-0.326;2022-10-16T06:18:47;5.70;;;1.10;;
44564;SDS011;30275;51.822;-0.326;2022-10-16T06:21:22;4.95;;;1.58;;
44564;SDS011;30275;51.822;-0.326;2022-10-16T06:23:50;5.30;;;1.20;;
44564;SDS011;30275;51.822;-0.326;2022-10-16T06:26:17;11.68;;;2.20;;
44564;SDS011;30275;51.822;-0.326;2022-10-16T06:28:45;8.10;;;1.63;;
44564;SDS011;30275;51.822;-0.326;2022-10-16T06:31:10;13.95;;;1.80;;
44564;SDS011;30275;51.822;-0.326;2022-10-16T06:33:37;7.63;;;1.58;;
44564;SDS011;30275;51.822;-0.326;2022-10-16T06:36:04;6.65;;;1.60;;
44564;SDS011;30275;51.822;-0.326;2022-10-16T06:38:32;4.10;;;1.05;;
44564;SDS011;30275;51.822;-0.326;2022-10-16T06:40:57;21.02;;;5.32;;
44564;SDS011;30275;51.822;-0.326;2022-10-16T06:43:23;40.00;;;15.98;;
44564;SDS011;30275;51.822;-0.326;2022-10-16T06:45:50;77.65;;;34.58;;
44564;SDS011;30275;51.822;-0.326;2022-10-16T06:48:20;197.00;;;78.30;;
44564;SDS011;30275;51.822;-0.326;2022-10-16T06:53:28;344.20;;;154.80;;
44564;SDS011;30275;51.822;-0.326;2022-10-16T06:55:55;377.98;;;174.13;;
44564;SDS011;30275;51.822;-0.326;2022-10-16T06:58:21;376.70;;;183.52;;
44564;SDS011;30275;51.822;-0.326;2022-10-16T07:00:47;360.33;;;171.50;;
44564;SDS011;30275;51.822;-0.326;2022-10-16T07:03:14;314.40;;;157.52;;
44564;SDS011;30275;51.822;-0.326;2022-10-16T07:05:40;304.25;;;147.07;;
44564;SDS011;30275;51.822;-0.326;2022-10-16T07:08:07;286.02;;;142.80;;
44564;SDS011;30275;51.822;-0.326;2022-10-16T07:10:33;256.48;;;128.05;;
44564;SDS011;30275;51.822;-0.326;2022-10-16T07:12:59;258.15;;;123.93;;
44564;SDS011;30275;51.822;-0.326;2022-10-16T07:15:25;240.43;;;120.55;;
44564;SDS011;30275;51.822;-0.326;2022-10-16T07:17:51;230.18;;;110.40;;
44564;SDS011;30275;51.822;-0.326;2022-10-16T07:20:17;222.32;;;107.07;;
44564;SDS011;30275;51.822;-0.326;2022-10-16T07:22:43;188.70;;;101.10;;
44564;SDS011;30275;51.822;-0.326;2022-10-16T07:25:09;177.73;;;94.10;;
44564;SDS011;30275;51.822;-0.326;2022-10-16T07:27:34;173.05;;;86.10;;
44564;SDS011;30275;51.822;-0.326;2022-10-16T07:30:00;158.50;;;78.60;;
44564;SDS011;30275;51.822;-0.326;2022-10-16T07:32:26;143.32;;;73.70;;
44564;SDS011;30275;51.822;-0.326;2022-10-16T07:34:52;125.97;;;63.28;;
44564;SDS011;30275;51.822;-0.326;2022-10-16T07:37:18;112.55;;;57.10;;
44564;SDS011;30275;51.822;-0.326;2022-10-16T07:39:43;113.45;;;55.67;;
44564;SDS011;30275;51.822;-0.326;2022-10-16T07:42:09;96.03;;;50.78;;
44564;SDS011;30275;51.822;-0.326;2022-10-16T07:44:35;59.10;;;29.02;;
44564;SDS011;30275;51.822;-0.326;2022-10-16T07:47:00;84.57;;;42.05;;
44564;SDS011;30275;51.822;-0.326;2022-10-16T07:49:26;72.15;;;36.15;;
44564;SDS011;30275;51.822;-0.326;2022-10-16T07:51:52;69.25;;;36.55;;
44564;SDS011;30275;51.822;-0.326;2022-10-16T07:54:17;64.53;;;34.85;;
44564;SDS011;30275;51.822;-0.326;2022-10-16T07:56:43;57.22;;;29.60;;
44564;SDS011;30275;51.822;-0.326;2022-10-16T07:59:09;37.78;;;18.75;;
44564;SDS011;30275;51.822;-0.326;2022-10-16T08:01:35;24.52;;;12.80;;
44564;SDS011;30275;51.822;-0.326;2022-10-16T08:04:00;45.42;;;20.52;;
44564;SDS011;30275;51.822;-0.326;2022-10-16T08:06:26;29.85;;;15.23;;
44564;SDS011;30275;51.822;-0.326;2022-10-16T08:08:51;34.60;;;17.02;;
44564;SDS011;30275;51.822;-0.326;2022-10-16T08:11:17;29.17;;;13.20;;
44564;SDS011;30275;51.822;-0.326;2022-10-16T08:13:43;29.80;;;16.10;;
44564;SDS011;30275;51.822;-0.326;2022-10-16T08:16:08;25.85;;;12.85;;
44564;SDS011;30275;51.822;-0.326;2022-10-16T08:18:38;18.45;;;9.52;;
44564;SDS011;30275;51.822;-0.326;2022-10-16T08:21:05;21.15;;;11.93;;
44564;SDS011;30275;51.822;-0.326;2022-10-16T08:23:32;23.05;;;10.85;;
44564;SDS011;30275;51.822;-0.326;2022-10-16T08:26:01;18.20;;;8.52;;
44564;SDS011;30275;51.822;-0.326;2022-10-16T08:28:31;17.52;;;7.25;;
44564;SDS011;30275;51.822;-0.326;2022-10-16T08:31:04;17.60;;;8.38;;
44564;SDS011;30275;51.822;-0.326;2022-10-16T08:33:34;13.63;;;7.45;;
44564;SDS011;30275;51.822;-0.326;2022-10-16T08:36:03;11.65;;;4.78;;
44564;SDS011;30275;51.822;-0.326;2022-10-16T08:38:29;13.43;;;5.50;;
44564;SDS011;30275;51.822;-0.326;2022-10-16T08:40:56;13.90;;;7.00;;
44564;SDS011;30275;51.822;-0.326;2022-10-16T08:46:30;16.55;;;8.05;;
44564;SDS011;30275;51.822;-0.326;2022-10-16T08:49:16;20.50;;;8.80;;
44564;SDS011;30275;51.822;-0.326;2022-10-16T08:51:45;17.85;;;8.07;;
44564;SDS011;30275;51.822;-0.326;2022-10-16T08:56:51;14.55;;;7.75;;
44564;SDS011;30275;51.822;-0.326;2022-10-16T08:59:20;19.40;;;7.50;;
44564;SDS011;30275;51.822;-0.326;2022-10-16T09:01:46;18.80;;;8.32;;
44564;SDS011;30275;51.822;-0.326;2022-10-16T09:07:19;13.30;;;5.88;;
44564;SDS011;30275;51.822;-0.326;2022-10-16T09:20:56;11.73;;;4.93;;
44564;SDS011;30275;51.822;-0.326;2022-10-16T09:23:42;6.40;;;2.50;;
44564;SDS011;30275;51.822;-0.326;2022-10-16T09:26:10;14.48;;;4.20;;
44564;SDS011;30275;51.822;-0.326;2022-10-16T09:28:37;15.90;;;4.80;;
44564;SDS011;30275;51.822;-0.326;2022-10-16T09:31:03;17.08;;;4.70;;
44564;SDS011;30275;51.822;-0.326;2022-10-16T09:33:30;9.30;;;2.50;;
44564;SDS011;30275;51.822;-0.326;2022-10-16T09:36:03;5.50;;;1.85;;
44564;SDS011;30275;51.822;-0.326;2022-10-16T09:38:34;6.53;;;1.60;;
44564;SDS011;30275;51.822;-0.326;2022-10-16T09:41:12;7.03;;;1.77;;
44564;SDS011;30275;51.822;-0.326;2022-10-16T09:43:42;5.68;;;2.05;;
44564;SDS011;30275;51.822;-0.326;2022-10-16T09:46:29;4.82;;;1.52;;
44564;SDS011;30275;51.822;-0.326;2022-10-16T09:48:58;4.32;;;1.67;;
44564;SDS011;30275;51.822;-0.326;2022-10-16T09:51:29;3.25;;;1.25;;
44564;SDS011;30275;51.822;-0.326;2022-10-16T09:54:11;4.00;;;1.55;;
44564;SDS011;30275;51.822;-0.326;2022-10-16T09:56:40;3.85;;;1.13;;
44564;SDS011;30275;51.822;-0.326;2022-10-16T09:59:12;4.20;;;1.40;;
44564;SDS011;30275;51.822;-0.326;2022-10-16T10:01:48;6.32;;;2.00;;
44564;SDS011;30275;51.822;-0.326;2022-10-16T10:04:18;6.78;;;1.55;;
44564;SDS011;30275;51.822;-0.326;2022-10-16T10:11:53;4.80;;;1.90;;
44564;SDS011;30275;51.822;-0.326;2022-10-16T10:14:23;5.88;;;2.38;;
44564;SDS011;30275;51.822;-0.326;2022-10-16T10:17:00;6.03;;;1.60;;
44564;SDS011;30275;51.822;-0.326;2022-10-16T10:19:53;5.82;;;1.73;;
44564;SDS011;30275;51.822;-0.326;2022-10-16T10:22:24;6.30;;;3.00;;
44564;SDS011;30275;51.822;-0.326;2022-10-16T10:30:33;5.32;;;1.80;;
44564;SDS011;30275;51.822;-0.326;2022-10-16T10:33:09;8.27;;;2.20;;
44564;SDS011;30275;51.822;-0.326;2022-10-16T10:35:44;5.03;;;1.42;;
44564;SDS011;30275;51.822;-0.326;2022-10-16T10:44:43;6.68;;;1.73;;
44564;SDS011;30275;51.822;-0.326;2022-10-16T10:47:27;4.85;;;1.75;;
44564;SDS011;30275;51.822;-0.326;2022-10-16T10:55:40;5.47;;;1.20;;
44564;SDS011;30275;51.822;-0.326;2022-10-16T11:01:10;5.70;;;1.13;;
44564;SDS011;30275;51.822;-0.326;2022-10-16T11:06:12;6.13;;;1.35;;
44564;SDS011;30275;51.822;-0.326;2022-10-16T11:09:00;2.95;;;1.42;;
44564;SDS011;30275;51.822;-0.326;2022-10-16T11:11:47;5.18;;;1.63;;
44564;SDS011;30275;51.822;-0.326;2022-10-16T11:14:19;6.57;;;1.80;;
44564;SDS011;30275;51.822;-0.326;2022-10-16T11:17:01;4.75;;;1.70;;
44564;SDS011;30275;51.822;-0.326;2022-10-16T11:19:51;6.72;;;1.55;;
44564;SDS011;30275;51.822;-0.326;2022-10-16T11:25:41;7.95;;;1.83;;
44564;SDS011;30275;51.822;-0.326;2022-10-16T11:30:27;6.55;;;1.83;;
44564;SDS011;30275;51.822;-0.326;2022-10-16T11:35:56;6.15;;;1.77;;
44564;SDS011;30275;51.822;-0.326;2022-10-16T11:38:38;5.32;;;1.50;;
44564;SDS011;30275;51.822;-0.326;2022-10-16T11:41:29;5.18;;;1.20;;
44564;SDS011;30275;51.822;-0.326;2022-10-16T11:46:43;8.85;;;2.08;;
44564;SDS011;30275;51.822;-0.326;2022-10-16T11:49:16;4.68;;;1.77;;
44564;SDS011;30275;51.822;-0.326;2022-10-16T11:51:48;6.53;;;1.73;;
44564;SDS011;30275;51.822;-0.326;2022-10-16T11:56:52;8.55;;;2.35;;
44564;SDS011;30275;51.822;-0.326;2022-10-16T12:05:15;13.57;;;4.80;;
44564;SDS011;30275;51.822;-0.326;2022-10-16T12:08:12;8.23;;;3.35;;
44564;SDS011;30275;51.822;-0.326;2022-10-16T12:10:40;27.20;;;13.95;;
44564;SDS011;30275;51.822;-0.326;2022-10-16T12:18:42;11.13;;;3.72;;
44564;SDS011;30275;51.822;-0.326;2022-10-16T12:21:12;11.85;;;5.82;;
44564;SDS011;30275;51.822;-0.326;2022-10-16T12:26:30;27.92;;;13.35;;
44564;SDS011;30275;51.822;-0.326;2022-10-16T12:31:58;15.32;;;7.30;;
44564;SDS011;30275;51.822;-0.326;2022-10-16T12:37:13;7.75;;;3.33;;
44564;SDS011;30275;51.822;-0.326;2022-10-16T12:39:48;4.20;;;2.05;;
44564;SDS011;30275;51.822;-0.326;2022-10-16T12:42:22;12.55;;;3.28;;
44564;SDS011;30275;51.822;-0.326;2022-10-16T12:44:51;8.48;;;3.72;;
44564;SDS011;30275;51.822;-0.326;2022-10-16T12:49:55;9.48;;;3.17;;
44564;SDS011;30275;51.822;-0.326;2022-10-16T12:52:25;9.02;;;1.90;;
44564;SDS011;30275;51.822;-0.326;2022-10-16T12:54:55;6.10;;;1.80;;
44564;SDS011;30275;51.822;-0.326;2022-10-16T13:09:07;12.20;;;2.97;;
44564;SDS011;30275;51.822;-0.326;2022-10-16T13:28:29;6.70;;;2.05;;
44564;SDS011;30275;51.822;-0.326;2022-10-16T13:30:58;5.55;;;1.60;;
44564;SDS011;30275;51.822;-0.326;2022-10-16T13:33:33;7.85;;;2.10;;
44564;SDS011;30275;51.822;-0.326;2022-10-16T13:36:01;7.07;;;2.45;;
44564;SDS011;30275;51.822;-0.326;2022-10-16T13:38:29;10.20;;;2.20;;
44564;SDS011;30275;51.822;-0.326;2022-10-16T13:41:00;10.57;;;2.00;;
44564;SDS011;30275;51.822;-0.326;2022-10-16T13:43:29;9.02;;;2.17;;
44564;SDS011;30275;51.822;-0.326;2022-10-16T13:48:31;6.80;;;1.50;;
44564;SDS011;30275;51.822;-0.326;2022-10-16T13:50:58;8.80;;;2.15;;
44564;SDS011;30275;51.822;-0.326;2022-10-16T13:53:24;8.18;;;2.05;;
44564;SDS011;30275;51.822;-0.326;2022-10-16T13:55:50;8.63;;;2.15;;
44564;SDS011;30275;51.822;-0.326;2022-10-16T13:58:15;8.82;;;2.00;;
44564;SDS011;30275;51.822;-0.326;2022-10-16T14:01:03;7.50;;;1.73;;
44564;SDS011;30275;51.822;-0.326;2022-10-16T14:03:39;9.15;;;2.75;;
44564;SDS011;30275;51.822;-0.326;2022-10-16T14:06:06;5.00;;;1.73;;
44564;SDS011;30275;51.822;-0.326;2022-10-16T14:08:40;6.65;;;2.00;;
44564;SDS011;30275;51.822;-0.326;2022-10-16T14:11:09;6.40;;;1.85;;
44564;SDS011;30275;51.822;-0.326;2022-10-16T14:13:45;7.88;;;1.77;;
44564;SDS011;30275;51.822;-0.326;2022-10-16T14:16:16;5.82;;;1.70;;
44564;SDS011;30275;51.822;-0.326;2022-10-16T14:18:45;6.43;;;1.95;;
44564;SDS011;30275;51.822;-0.326;2022-10-16T14:21:17;7.93;;;2.17;;
44564;SDS011;30275;51.822;-0.326;2022-10-16T14:23:43;7.55;;;1.67;;
44564;SDS011;30275;51.822;-0.326;2022-10-16T14:28:35;6.00;;;2.13;;
44564;SDS011;30275;51.822;-0.326;2022-10-16T14:31:02;8.32;;;1.70;;
44564;SDS011;30275;51.822;-0.326;2022-10-16T14:33:59;5.63;;;1.65;;
44564;SDS011;30275;51.822;-0.326;2022-10-16T14:36:25;7.97;;;2.38;;
44564;SDS011;30275;51.822;-0.326;2022-10-16T14:41:45;10.63;;;2.45;;
44564;SDS011;30275;51.822;-0.326;2022-10-16T14:44:12;8.10;;;1.70;;
44564;SDS011;30275;51.822;-0.326;2022-10-16T14:46:39;8.95;;;1.88;;
44564;SDS011;30275;51.822;-0.326;2022-10-16T14:51:36;7.82;;;2.33;;
44564;SDS011;30275;51.822;-0.326;2022-10-16T14:54:10;8.60;;;1.75;;
44564;SDS011;30275;51.822;-0.326;2022-10-16T14:56:45;8.70;;;1.58;;
44564;SDS011;30275;51.822;-0.326;2022-10-16T14:59:19;9.75;;;1.88;;
44564;SDS011;30275;51.822;-0.326;2022-10-16T15:02:15;7.97;;;1.60;;
44564;SDS011;30275;51.822;-0.326;2022-10-16T15:04:42;8.88;;;2.40;;
44564;SDS011;30275;51.822;-0.326;2022-10-16T15:07:08;9.25;;;2.53;;
44564;SDS011;30275;51.822;-0.326;2022-10-16T15:09:33;7.10;;;2.78;;
44564;SDS011;30275;51.822;-0.326;2022-10-16T15:11:59;7.68;;;2.15;;
44564;SDS011;30275;51.822;-0.326;2022-10-16T15:14:25;7.80;;;2.00;;
44564;SDS011;30275;51.822;-0.326;2022-10-16T15:16:50;6.35;;;2.00;;
44564;SDS011;30275;51.822;-0.326;2022-10-16T15:19:16;8.32;;;2.65;;
44564;SDS011;30275;51.822;-0.326;2022-10-16T15:21:41;8.35;;;2.03;;
44564;SDS011;30275;51.822;-0.326;2022-10-16T15:24:09;17.15;;;2.22;;
44564;SDS011;30275;51.822;-0.326;2022-10-16T15:26:37;7.68;;;2.50;;
44564;SDS011;30275;51.822;-0.326;2022-10-16T15:29:03;6.53;;;2.05;;
44564;SDS011;30275;51.822;-0.326;2022-10-16T15:31:29;9.25;;;2.00;;
44564;SDS011;30275;51.822;-0.326;2022-10-16T15:33:55;6.10;;;1.90;;
44564;SDS011;30275;51.822;-0.326;2022-10-16T15:36:36;9.65;;;2.35;;
44564;SDS011;30275;51.822;-0.326;2022-10-16T15:39:03;8.88;;;2.03;;
44564;SDS011;30275;51.822;-0.326;2022-10-16T15:41:29;7.43;;;1.85;;
44564;SDS011;30275;51.822;-0.326;2022-10-16T15:43:55;8.45;;;2.92;;
44564;SDS011;30275;51.822;-0.326;2022-10-16T15:46:21;10.00;;;2.40;;
44564;SDS011;30275;51.822;-0.326;2022-10-16T15:48:51;10.05;;;2.33;;
44564;SDS011;30275;51.822;-0.326;2022-10-16T15:51:21;6.53;;;1.63;;
44564;SDS011;30275;51.822;-0.326;2022-10-16T15:53:47;16.63;;;4.43;;
44564;SDS011;30275;51.822;-0.326;2022-10-16T15:56:13;16.55;;;4.40;;
44564;SDS011;30275;51.822;-0.326;2022-10-16T15:58:39;35.83;;;9.95;;
44564;SDS011;30275;51.822;-0.326;2022-10-16T16:01:05;26.65;;;8.43;;
44564;SDS011;30275;51.822;-0.326;2022-10-16T16:03:31;23.58;;;6.40;;
44564;SDS011;30275;51.822;-0.326;2022-10-16T16:05:57;32.15;;;10.80;;
44564;SDS011;30275;51.822;-0.326;2022-10-16T16:08:23;25.58;;;8.07;;
44564;SDS011;30275;51.822;-0.326;2022-10-16T16:10:58;16.85;;;4.70;;
44564;SDS011;30275;51.822;-0.326;2022-10-16T16:13:25;18.88;;;5.57;;
44564;SDS011;30275;51.822;-0.326;2022-10-16T16:15:50;15.55;;;4.88;;
44564;SDS011;30275;51.822;-0.326;2022-10-16T16:18:16;18.67;;;5.75;;
44564;SDS011;30275;51.822;-0.326;2022-10-16T16:20:41;20.83;;;7.43;;
44564;SDS011;30275;51.822;-0.326;2022-10-16T16:23:07;16.70;;;4.88;;
44564;SDS011;30275;51.822;-0.326;2022-10-16T16:25:33;18.85;;;6.22;;
44564;SDS011;30275;51.822;-0.326;2022-10-16T16:27:58;22.17;;;4.70;;
44564;SDS011;30275;51.822;-0.326;2022-10-16T16:30:24;8.15;;;3.70;;
44564;SDS011;30275;51.822;-0.326;2022-10-16T16:32:50;10.63;;;4.47;;
44564;SDS011;30275;51.822;-0.326;2022-10-16T16:35:15;14.27;;;4.90;;
44564;SDS011;30275;51.822;-0.326;2022-10-16T16:37:41;14.25;;;5.03;;
44564;SDS011;30275;51.822;-0.326;2022-10-16T16:40:06;9.07;;;3.15;;
44564;SDS011;30275;51.822;-0.326;2022-10-16T16:42:32;8.30;;;3.20;;
44564;SDS011;30275;51.822;-0.326;2022-10-16T16:44:58;13.85;;;3.63;;
44564;SDS011;30275;51.822;-0.326;2022-10-16T16:47:24;12.75;;;3.00;;
44564;SDS011;30275;51.822;-0.326;2022-10-16T16:49:50;9.15;;;3.25;;
44564;SDS011;30275;51.822;-0.326;2022-10-16T16:52:16;10.00;;;2.95;;
44564;SDS011;30275;51.822;-0.326;2022-10-16T16:54:42;18.13;;;3.25;;
44564;SDS011;30275;51.822;-0.326;2022-10-16T16:57:09;12.55;;;3.17;;
44564;SDS011;30275;51.822;-0.326;2022-10-16T16:59:35;10.88;;;3.15;;